sensor_id;sensor_type;location;lat;lon;timestamp;P1;durP1;ratioP1;P2;durP2;ratioP2
25107;SDS011;13090;53.422;7.670;2023-08-12T00:00:00;18.25;;;10.32;;
25107;SDS011;13090;53.422;7.670;2023-08-12T00:05:20;15.40;;;9.85;;
25107;SDS011;13090;53.422;7.670;2023-08-12T00:10:42;16.00;;;9.82;;
25107;SDS011;13090;53.422;7.670;2023-08-12T00:16:04;12.55;;;8.68;;
25107;SDS011;13090;53.422;7.670;2023-08-12T00:21:25;13.93;;;8.73;;
25107;SDS011;13090;53.422;7.670;2023-08-12T00:26:45;13.07;;;8.68;;
25107;SDS011;13090;53.422;7.670;2023-08-12T00:32:09;13.23;;;8.60;;
25107;SDS011;13090;53.422;7.670;2023-08-12T00:37:30;14.38;;;8.00;;
25107;SDS011;13090;53.422;7.670;2023-08-12T00:42:51;15.65;;;9.07;;
25107;SDS011;13090;53.422;7.670;2023-08-12T00:48:13;15.23;;;9.32;;
25107;SDS011;13090;53.422;7.670;2023-08-12T00:53:36;12.95;;;9.00;;
25107;SDS011;13090;53.422;7.670;2023-08-12T00:58:57;15.15;;;9.35;;
25107;SDS011;13090;53.422;7.670;2023-08-12T01:04:21;14.32;;;9.63;;
25107;SDS011;13090;53.422;7.670;2023-08-12T01:09:41;10.85;;;8.15;;
25107;SDS011;13090;53.422;7.670;2023-08-12T01:15:04;13.20;;;9.68;;
25107;SDS011;13090;53.422;7.670;2023-08-12T01:20:30;12.90;;;8.98;;
25107;SDS011;13090;53.422;7.670;2023-08-12T01:25:53;13.10;;;9.57;;
25107;SDS011;13090;53.422;7.670;2023-08-12T01:31:15;13.20;;;9.48;;
25107;SDS011;13090;53.422;7.670;2023-08-12T01:36:44;16.23;;;9.65;;
25107;SDS011;13090;53.422;7.670;2023-08-12T01:42:11;11.73;;;8.65;;
25107;SDS011;13090;53.422;7.670;2023-08-12T01:47:33;11.95;;;8.10;;
25107;SDS011;13090;53.422;7.670;2023-08-12T01:52:54;12.93;;;8.55;;
25107;SDS011;13090;53.422;7.670;2023-08-12T01:58:16;14.23;;;9.27;;
25107;SDS011;13090;53.422;7.670;2023-08-12T02:03:37;15.45;;;9.57;;
25107;SDS011;13090;53.422;7.670;2023-08-12T02:08:58;15.05;;;9.48;;
25107;SDS011;13090;53.422;7.670;2023-08-12T02:14:20;17.75;;;9.93;;
25107;SDS011;13090;53.422;7.670;2023-08-12T02:19:41;18.65;;;8.88;;
25107;SDS011;13090;53.422;7.670;2023-08-12T02:25:02;12.43;;;9.45;;
25107;SDS011;13090;53.422;7.670;2023-08-12T02:30:25;13.38;;;9.13;;
25107;SDS011;13090;53.422;7.670;2023-08-12T02:35:45;14.32;;;9.43;;
25107;SDS011;13090;53.422;7.670;2023-08-12T02:41:06;16.30;;;8.98;;
25107;SDS011;13090;53.422;7.670;2023-08-12T02:46:28;13.63;;;8.75;;
25107;SDS011;13090;53.422;7.670;2023-08-12T02:51:49;13.05;;;8.80;;
25107;SDS011;13090;53.422;7.670;2023-08-12T02:57:10;14.25;;;9.35;;
25107;SDS011;13090;53.422;7.670;2023-08-12T03:02:33;11.60;;;7.93;;
25107;SDS011;13090;53.422;7.670;2023-08-12T03:07:54;14.70;;;9.07;;
25107;SDS011;13090;53.422;7.670;2023-08-12T03:13:15;11.52;;;8.45;;
25107;SDS011;13090;53.422;7.670;2023-08-12T03:18:37;10.75;;;8.82;;
25107;SDS011;13090;53.422;7.670;2023-08-12T03:23:58;10.63;;;8.50;;
25107;SDS011;13090;53.422;7.670;2023-08-12T03:29:18;13.35;;;9.30;;
25107;SDS011;13090;53.422;7.670;2023-08-12T03:34:41;12.95;;;9.00;;
25107;SDS011;13090;53.422;7.670;2023-08-12T03:40:02;10.85;;;8.55;;
25107;SDS011;13090;53.422;7.670;2023-08-12T03:45:22;12.55;;;8.57;;
25107;SDS011;13090;53.422;7.670;2023-08-12T03:50:45;12.90;;;8.55;;
25107;SDS011;13090;53.422;7.670;2023-08-12T03:56:06;12.25;;;7.80;;
25107;SDS011;13090;53.422;7.670;2023-08-12T04:01:26;9.98;;;7.93;;
25107;SDS011;13090;53.422;7.670;2023-08-12T04:06:49;11.25;;;8.23;;
25107;SDS011;13090;53.422;7.670;2023-08-12T04:12:10;10.25;;;7.78;;
25107;SDS011;13090;53.422;7.670;2023-08-12T04:17:30;10.73;;;7.90;;
25107;SDS011;13090;53.422;7.670;2023-08-12T04:22:53;11.45;;;7.97;;
25107;SDS011;13090;53.422;7.670;2023-08-12T04:28:14;14.20;;;7.72;;
25107;SDS011;13090;53.422;7.670;2023-08-12T04:33:35;11.13;;;7.38;;
25107;SDS011;13090;53.422;7.670;2023-08-12T04:38:57;7.55;;;6.53;;
25107;SDS011;13090;53.422;7.670;2023-08-12T04:44:18;10.02;;;7.38;;
25107;SDS011;13090;53.422;7.670;2023-08-12T04:49:39;9.80;;;6.70;;
25107;SDS011;13090;53.422;7.670;2023-08-12T04:55:01;9.48;;;6.97;;
25107;SDS011;13090;53.422;7.670;2023-08-12T05:00:22;13.27;;;8.70;;
25107;SDS011;13090;53.422;7.670;2023-08-12T05:05:43;8.52;;;6.65;;
25107;SDS011;13090;53.422;7.670;2023-08-12T05:11:09;10.18;;;6.25;;
25107;SDS011;13090;53.422;7.670;2023-08-12T05:16:30;16.10;;;11.60;;
25107;SDS011;13090;53.422;7.670;2023-08-12T05:21:51;9.43;;;5.95;;
25107;SDS011;13090;53.422;7.670;2023-08-12T05:27:13;6.93;;;5.45;;
25107;SDS011;13090;53.422;7.670;2023-08-12T05:32:34;8.35;;;5.60;;
25107;SDS011;13090;53.422;7.670;2023-08-12T05:37:55;10.25;;;5.47;;
25107;SDS011;13090;53.422;7.670;2023-08-12T05:43:17;7.68;;;5.47;;
25107;SDS011;13090;53.422;7.670;2023-08-12T05:48:38;8.50;;;5.25;;
25107;SDS011;13090;53.422;7.670;2023-08-12T05:53:59;8.27;;;5.65;;
25107;SDS011;13090;53.422;7.670;2023-08-12T05:59:21;8.88;;;5.30;;
25107;SDS011;13090;53.422;7.670;2023-08-12T06:04:42;6.95;;;5.45;;
25107;SDS011;13090;53.422;7.670;2023-08-12T06:10:03;6.40;;;4.80;;
25107;SDS011;13090;53.422;7.670;2023-08-12T06:15:26;6.80;;;5.22;;
25107;SDS011;13090;53.422;7.670;2023-08-12T06:20:46;6.88;;;4.88;;
25107;SDS011;13090;53.422;7.670;2023-08-12T06:26:07;5.00;;;4.50;;
25107;SDS011;13090;53.422;7.670;2023-08-12T06:31:29;6.28;;;4.70;;
25107;SDS011;13090;53.422;7.670;2023-08-12T06:36:51;11.60;;;4.40;;
25107;SDS011;13090;53.422;7.670;2023-08-12T06:42:12;6.50;;;4.07;;
25107;SDS011;13090;53.422;7.670;2023-08-12T06:47:35;8.93;;;4.72;;
25107;SDS011;13090;53.422;7.670;2023-08-12T06:52:55;9.75;;;4.88;;
25107;SDS011;13090;53.422;7.670;2023-08-12T06:58:16;7.80;;;4.65;;
25107;SDS011;13090;53.422;7.670;2023-08-12T07:03:38;7.28;;;4.70;;
25107;SDS011;13090;53.422;7.670;2023-08-12T07:08:59;9.20;;;4.60;;
25107;SDS011;13090;53.422;7.670;2023-08-12T07:14:20;7.07;;;4.78;;
25107;SDS011;13090;53.422;7.670;2023-08-12T07:19:42;6.97;;;5.13;;
25107;SDS011;13090;53.422;7.670;2023-08-12T07:25:03;7.38;;;4.20;;
25107;SDS011;13090;53.422;7.670;2023-08-12T07:30:25;7.30;;;4.13;;
25107;SDS011;13090;53.422;7.670;2023-08-12T07:35:47;7.78;;;4.40;;
25107;SDS011;13090;53.422;7.670;2023-08-12T07:41:08;6.97;;;3.70;;
25107;SDS011;13090;53.422;7.670;2023-08-12T07:46:29;4.88;;;3.70;;
25107;SDS011;13090;53.422;7.670;2023-08-12T07:51:51;6.70;;;3.80;;
25107;SDS011;13090;53.422;7.670;2023-08-12T07:57:12;7.47;;;3.65;;
25107;SDS011;13090;53.422;7.670;2023-08-12T08:02:33;7.18;;;3.60;;
25107;SDS011;13090;53.422;7.670;2023-08-12T08:07:55;5.50;;;3.72;;
25107;SDS011;13090;53.422;7.670;2023-08-12T08:13:16;6.40;;;3.75;;
25107;SDS011;13090;53.422;7.670;2023-08-12T08:18:37;5.63;;;3.42;;
25107;SDS011;13090;53.422;7.670;2023-08-12T08:24:00;7.13;;;3.47;;
25107;SDS011;13090;53.422;7.670;2023-08-12T08:29:20;4.80;;;3.35;;
25107;SDS011;13090;53.422;7.670;2023-08-12T08:34:41;5.10;;;3.20;;
25107;SDS011;13090;53.422;7.670;2023-08-12T08:40:05;5.28;;;3.60;;
25107;SDS011;13090;53.422;7.670;2023-08-12T08:45:26;5.55;;;3.30;;
25107;SDS011;13090;53.422;7.670;2023-08-12T08:50:48;7.93;;;4.30;;
25107;SDS011;13090;53.422;7.670;2023-08-12T08:56:12;6.40;;;4.03;;
25107;SDS011;13090;53.422;7.670;2023-08-12T09:01:35;6.65;;;4.30;;
25107;SDS011;13090;53.422;7.670;2023-08-12T09:06:57;8.38;;;4.88;;
25107;SDS011;13090;53.422;7.670;2023-08-12T09:12:21;6.53;;;4.63;;
25107;SDS011;13090;53.422;7.670;2023-08-12T09:17:42;6.82;;;5.32;;
25107;SDS011;13090;53.422;7.670;2023-08-12T09:23:03;7.13;;;5.20;;
25107;SDS011;13090;53.422;7.670;2023-08-12T09:28:26;8.98;;;6.38;;
25107;SDS011;13090;53.422;7.670;2023-08-12T09:33:46;11.07;;;6.97;;
25107;SDS011;13090;53.422;7.670;2023-08-12T09:39:07;11.77;;;6.95;;
25107;SDS011;13090;53.422;7.670;2023-08-12T09:44:31;8.43;;;6.97;;
25107;SDS011;13090;53.422;7.670;2023-08-12T09:49:55;9.30;;;6.25;;
25107;SDS011;13090;53.422;7.670;2023-08-12T09:55:16;11.63;;;7.78;;
25107;SDS011;13090;53.422;7.670;2023-08-12T10:00:39;10.85;;;8.60;;
25107;SDS011;13090;53.422;7.670;2023-08-12T10:06:00;8.43;;;6.93;;
25107;SDS011;13090;53.422;7.670;2023-08-12T10:11:21;7.25;;;6.10;;
25107;SDS011;13090;53.422;7.670;2023-08-12T10:16:45;8.60;;;6.63;;
25107;SDS011;13090;53.422;7.670;2023-08-12T10:22:06;8.80;;;6.85;;
25107;SDS011;13090;53.422;7.670;2023-08-12T10:27:31;8.32;;;7.20;;
25107;SDS011;13090;53.422;7.670;2023-08-12T10:32:53;12.00;;;8.60;;
25107;SDS011;13090;53.422;7.670;2023-08-12T10:38:16;10.10;;;7.38;;
25107;SDS011;13090;53.422;7.670;2023-08-12T10:43:48;10.63;;;6.25;;
25107;SDS011;13090;53.422;7.670;2023-08-12T10:49:11;8.98;;;6.47;;
25107;SDS011;13090;53.422;7.670;2023-08-12T10:54:31;7.13;;;4.70;;
25107;SDS011;13090;53.422;7.670;2023-08-12T10:59:53;5.78;;;4.85;;
25107;SDS011;13090;53.422;7.670;2023-08-12T11:05:16;6.65;;;4.57;;
25107;SDS011;13090;53.422;7.670;2023-08-12T11:10:38;5.07;;;4.15;;
25107;SDS011;13090;53.422;7.670;2023-08-12T11:16:06;4.38;;;3.70;;
25107;SDS011;13090;53.422;7.670;2023-08-12T11:21:30;6.15;;;3.22;;
25107;SDS011;13090;53.422;7.670;2023-08-12T11:26:50;5.45;;;3.42;;
25107;SDS011;13090;53.422;7.670;2023-08-12T11:32:12;4.15;;;3.30;;
25107;SDS011;13090;53.422;7.670;2023-08-12T11:37:36;5.85;;;2.95;;
25107;SDS011;13090;53.422;7.670;2023-08-12T11:42:58;4.10;;;2.90;;
25107;SDS011;13090;53.422;7.670;2023-08-12T11:48:20;5.20;;;3.13;;
25107;SDS011;13090;53.422;7.670;2023-08-12T11:53:42;3.78;;;3.15;;
25107;SDS011;13090;53.422;7.670;2023-08-12T11:59:03;3.70;;;2.75;;
25107;SDS011;13090;53.422;7.670;2023-08-12T12:04:24;4.47;;;3.50;;
25107;SDS011;13090;53.422;7.670;2023-08-12T12:09:49;2.17;;;1.98;;
25107;SDS011;13090;53.422;7.670;2023-08-12T12:15:12;4.10;;;2.90;;
25107;SDS011;13090;53.422;7.670;2023-08-12T12:20:34;3.35;;;2.28;;
25107;SDS011;13090;53.422;7.670;2023-08-12T12:25:58;3.67;;;2.65;;
25107;SDS011;13090;53.422;7.670;2023-08-12T12:31:19;2.10;;;1.90;;
25107;SDS011;13090;53.422;7.670;2023-08-12T12:36:40;2.92;;;2.47;;
25107;SDS011;13090;53.422;7.670;2023-08-12T12:42:02;2.30;;;2.10;;
25107;SDS011;13090;53.422;7.670;2023-08-12T12:47:23;2.58;;;2.28;;
25107;SDS011;13090;53.422;7.670;2023-08-12T12:52:45;2.42;;;2.15;;
25107;SDS011;13090;53.422;7.670;2023-08-12T12:58:07;3.03;;;2.50;;
25107;SDS011;13090;53.422;7.670;2023-08-12T13:03:31;1.80;;;1.65;;
25107;SDS011;13090;53.422;7.670;2023-08-12T13:08:53;2.42;;;1.90;;
25107;SDS011;13090;53.422;7.670;2023-08-12T13:14:15;2.50;;;1.90;;
25107;SDS011;13090;53.422;7.670;2023-08-12T13:19:36;3.17;;;2.00;;
25107;SDS011;13090;53.422;7.670;2023-08-12T13:24:57;2.95;;;2.15;;
25107;SDS011;13090;53.422;7.670;2023-08-12T13:30:20;2.67;;;1.90;;
25107;SDS011;13090;53.422;7.670;2023-08-12T13:35:41;1.60;;;1.42;;
25107;SDS011;13090;53.422;7.670;2023-08-12T13:41:02;1.98;;;1.75;;
25107;SDS011;13090;53.422;7.670;2023-08-12T13:46:24;4.47;;;2.53;;
25107;SDS011;13090;53.422;7.670;2023-08-12T13:51:45;6.43;;;3.88;;
25107;SDS011;13090;53.422;7.670;2023-08-12T13:57:06;6.25;;;3.70;;
25107;SDS011;13090;53.422;7.670;2023-08-12T14:02:29;5.60;;;2.67;;
25107;SDS011;13090;53.422;7.670;2023-08-12T14:07:49;7.47;;;4.70;;
25107;SDS011;13090;53.422;7.670;2023-08-12T14:13:10;3.58;;;2.30;;
25107;SDS011;13090;53.422;7.670;2023-08-12T14:18:32;5.00;;;2.22;;
25107;SDS011;13090;53.422;7.670;2023-08-12T14:23:53;2.72;;;1.50;;
25107;SDS011;13090;53.422;7.670;2023-08-12T14:29:14;5.07;;;1.95;;
25107;SDS011;13090;53.422;7.670;2023-08-12T14:34:36;3.67;;;1.33;;
25107;SDS011;13090;53.422;7.670;2023-08-12T14:40:00;3.05;;;1.50;;
25107;SDS011;13090;53.422;7.670;2023-08-12T14:45:21;6.03;;;1.73;;
25107;SDS011;13090;53.422;7.670;2023-08-12T14:50:43;4.55;;;1.67;;
25107;SDS011;13090;53.422;7.670;2023-08-12T14:56:04;4.05;;;1.58;;
25107;SDS011;13090;53.422;7.670;2023-08-12T15:01:25;4.93;;;1.35;;
25107;SDS011;13090;53.422;7.670;2023-08-12T15:06:47;1.98;;;1.40;;
25107;SDS011;13090;53.422;7.670;2023-08-12T15:12:08;3.10;;;1.25;;
25107;SDS011;13090;53.422;7.670;2023-08-12T15:17:29;3.28;;;1.20;;
25107;SDS011;13090;53.422;7.670;2023-08-12T15:22:51;4.47;;;1.10;;
25107;SDS011;13090;53.422;7.670;2023-08-12T15:28:12;3.13;;;1.42;;
25107;SDS011;13090;53.422;7.670;2023-08-12T15:33:33;4.97;;;1.50;;
25107;SDS011;13090;53.422;7.670;2023-08-12T15:38:55;3.15;;;1.60;;
25107;SDS011;13090;53.422;7.670;2023-08-12T15:44:15;8.55;;;1.60;;
25107;SDS011;13090;53.422;7.670;2023-08-12T15:49:36;6.65;;;2.17;;
25107;SDS011;13090;53.422;7.670;2023-08-12T15:54:59;4.38;;;1.60;;
25107;SDS011;13090;53.422;7.670;2023-08-12T16:00:20;4.95;;;2.22;;
25107;SDS011;13090;53.422;7.670;2023-08-12T16:05:41;5.65;;;1.88;;
25107;SDS011;13090;53.422;7.670;2023-08-12T16:11:04;5.50;;;1.60;;
25107;SDS011;13090;53.422;7.670;2023-08-12T16:16:27;3.10;;;1.50;;
25107;SDS011;13090;53.422;7.670;2023-08-12T16:21:50;5.38;;;1.48;;
25107;SDS011;13090;53.422;7.670;2023-08-12T16:27:14;5.00;;;1.85;;
25107;SDS011;13090;53.422;7.670;2023-08-12T16:32:36;5.43;;;1.70;;
25107;SDS011;13090;53.422;7.670;2023-08-12T16:37:57;5.75;;;1.70;;
25107;SDS011;13090;53.422;7.670;2023-08-12T16:43:19;10.20;;;1.80;;
25107;SDS011;13090;53.422;7.670;2023-08-12T16:48:39;4.47;;;1.45;;
25107;SDS011;13090;53.422;7.670;2023-08-12T16:54:00;5.55;;;2.22;;
25107;SDS011;13090;53.422;7.670;2023-08-12T16:59:24;5.03;;;1.80;;
25107;SDS011;13090;53.422;7.670;2023-08-12T17:04:45;5.63;;;1.60;;
25107;SDS011;13090;53.422;7.670;2023-08-12T17:10:07;5.10;;;1.42;;
25107;SDS011;13090;53.422;7.670;2023-08-12T17:15:32;5.10;;;1.45;;
25107;SDS011;13090;53.422;7.670;2023-08-12T17:20:54;2.85;;;1.25;;
25107;SDS011;13090;53.422;7.670;2023-08-12T17:26:15;3.47;;;1.35;;
25107;SDS011;13090;53.422;7.670;2023-08-12T17:31:39;5.47;;;1.55;;
25107;SDS011;13090;53.422;7.670;2023-08-12T17:37:02;3.40;;;1.50;;
25107;SDS011;13090;53.422;7.670;2023-08-12T17:42:25;4.82;;;1.52;;
25107;SDS011;13090;53.422;7.670;2023-08-12T17:47:55;7.57;;;1.70;;
25107;SDS011;13090;53.422;7.670;2023-08-12T17:53:17;7.30;;;2.00;;
25107;SDS011;13090;53.422;7.670;2023-08-12T17:58:40;4.13;;;2.00;;
25107;SDS011;13090;53.422;7.670;2023-08-12T18:04:05;7.32;;;1.58;;
25107;SDS011;13090;53.422;7.670;2023-08-12T18:09:30;6.60;;;1.48;;
25107;SDS011;13090;53.422;7.670;2023-08-12T18:14:51;3.03;;;1.10;;
25107;SDS011;13090;53.422;7.670;2023-08-12T18:20:15;6.28;;;1.38;;
25107;SDS011;13090;53.422;7.670;2023-08-12T18:25:41;5.78;;;1.30;;
25107;SDS011;13090;53.422;7.670;2023-08-12T18:31:09;5.60;;;1.25;;
25107;SDS011;13090;53.422;7.670;2023-08-12T18:36:32;5.82;;;1.42;;
25107;SDS011;13090;53.422;7.670;2023-08-12T18:41:54;5.40;;;1.50;;
25107;SDS011;13090;53.422;7.670;2023-08-12T18:47:16;5.32;;;1.58;;
25107;SDS011;13090;53.422;7.670;2023-08-12T18:52:39;5.00;;;1.80;;
25107;SDS011;13090;53.422;7.670;2023-08-12T18:58:02;5.80;;;1.60;;
25107;SDS011;13090;53.422;7.670;2023-08-12T19:03:24;5.32;;;1.80;;
25107;SDS011;13090;53.422;7.670;2023-08-12T19:08:47;6.50;;;2.05;;
25107;SDS011;13090;53.422;7.670;2023-08-12T19:14:11;4.25;;;1.60;;
25107;SDS011;13090;53.422;7.670;2023-08-12T19:19:34;7.57;;;1.73;;
25107;SDS011;13090;53.422;7.670;2023-08-12T19:24:56;4.65;;;1.83;;
25107;SDS011;13090;53.422;7.670;2023-08-12T19:30:19;6.35;;;2.42;;
25107;SDS011;13090;53.422;7.670;2023-08-12T19:35:42;4.40;;;1.70;;
25107;SDS011;13090;53.422;7.670;2023-08-12T19:41:05;6.15;;;1.83;;
25107;SDS011;13090;53.422;7.670;2023-08-12T19:46:26;3.80;;;1.50;;
25107;SDS011;13090;53.422;7.670;2023-08-12T19:51:48;5.53;;;1.60;;
25107;SDS011;13090;53.422;7.670;2023-08-12T19:57:11;5.55;;;1.52;;
25107;SDS011;13090;53.422;7.670;2023-08-12T20:02:32;8.82;;;1.95;;
25107;SDS011;13090;53.422;7.670;2023-08-12T20:13:21;5.95;;;1.60;;
25107;SDS011;13090;53.422;7.670;2023-08-12T20:18:42;3.40;;;1.63;;
25107;SDS011;13090;53.422;7.670;2023-08-12T20:24:05;8.05;;;1.80;;
25107;SDS011;13090;53.422;7.670;2023-08-12T20:29:37;9.38;;;2.92;;
25107;SDS011;13090;53.422;7.670;2023-08-12T20:34:59;7.05;;;2.20;;
25107;SDS011;13090;53.422;7.670;2023-08-12T20:40:23;5.18;;;1.88;;
25107;SDS011;13090;53.422;7.670;2023-08-12T20:45:48;4.75;;;1.65;;
25107;SDS011;13090;53.422;7.670;2023-08-12T20:51:11;3.88;;;1.48;;
25107;SDS011;13090;53.422;7.670;2023-08-12T20:56:34;2.35;;;1.50;;
25107;SDS011;13090;53.422;7.670;2023-08-12T21:01:57;4.22;;;1.55;;
25107;SDS011;13090;53.422;7.670;2023-08-12T21:07:19;5.10;;;1.65;;
25107;SDS011;13090;53.422;7.670;2023-08-12T21:12:41;5.05;;;1.45;;
25107;SDS011;13090;53.422;7.670;2023-08-12T21:18:05;7.13;;;1.75;;
25107;SDS011;13090;53.422;7.670;2023-08-12T21:23:26;4.45;;;1.58;;
25107;SDS011;13090;53.422;7.670;2023-08-12T21:28:47;7.78;;;1.65;;
25107;SDS011;13090;53.422;7.670;2023-08-12T21:34:09;5.10;;;1.50;;
25107;SDS011;13090;53.422;7.670;2023-08-12T21:39:30;4.00;;;1.42;;
25107;SDS011;13090;53.422;7.670;2023-08-12T21:44:51;7.43;;;2.28;;
25107;SDS011;13090;53.422;7.670;2023-08-12T21:50:14;5.47;;;1.85;;
25107;SDS011;13090;53.422;7.670;2023-08-12T21:55:34;12.20;;;2.83;;
25107;SDS011;13090;53.422;7.670;2023-08-12T22:00:55;8.20;;;3.00;;
25107;SDS011;13090;53.422;7.670;2023-08-12T22:06:17;8.90;;;2.08;;
25107;SDS011;13090;53.422;7.670;2023-08-12T22:11:39;3.30;;;1.65;;
25107;SDS011;13090;53.422;7.670;2023-08-12T22:16:59;6.13;;;1.70;;
25107;SDS011;13090;53.422;7.670;2023-08-12T22:22:22;6.82;;;1.80;;
25107;SDS011;13090;53.422;7.670;2023-08-12T22:27:43;3.95;;;1.88;;
25107;SDS011;13090;53.422;7.670;2023-08-12T22:33:04;5.03;;;2.13;;
25107;SDS011;13090;53.422;7.670;2023-08-12T22:38:26;4.88;;;1.98;;
25107;SDS011;13090;53.422;7.670;2023-08-12T22:43:47;4.60;;;1.90;;
25107;SDS011;13090;53.422;7.670;2023-08-12T22:49:08;4.03;;;1.85;;
25107;SDS011;13090;53.422;7.670;2023-08-12T22:54:30;9.35;;;1.92;;
25107;SDS011;13090;53.422;7.670;2023-08-12T22:59:51;6.65;;;2.15;;
25107;SDS011;13090;53.422;7.670;2023-08-12T23:05:12;6.63;;;2.10;;
25107;SDS011;13090;53.422;7.670;2023-08-12T23:10:34;3.45;;;1.52;;
25107;SDS011;13090;53.422;7.670;2023-08-12T23:15:55;6.55;;;1.63;;
25107;SDS011;13090;53.422;7.670;2023-08-12T23:21:16;5.97;;;1.83;;
25107;SDS011;13090;53.422;7.670;2023-08-12T23:26:38;7.35;;;2.13;;
25107;SDS011;13090;53.422;7.670;2023-08-12T23:31:59;6.50;;;1.77;;
25107;SDS011;13090;53.422;7.670;2023-08-12T23:37:19;7.43;;;2.03;;
25107;SDS011;13090;53.422;7.670;2023-08-12T23:42:42;6.10;;;1.98;;
25107;SDS011;13090;53.422;7.670;2023-08-12T23:48:03;7.03;;;2.13;;
25107;SDS011;13090;53.422;7.670;2023-08-12T23:53:24;6.10;;;1.95;;
25107;SDS011;13090;53.422;7.670;2023-08-12T23:58:47;4.30;;;1.67;;
